ENFL

Details ICAO ENFL (FRO)
Name FLORO
Region Norway
Timezone Europe/Oslo (UTC+1.0)
Plans Departing 16
Arriving 23
Stats Elevation 37 ft / 11 m (AMSL)
Location 61.582653° 5.018651°
Runways 1
Magnetic Variation 0.682° E
Sunrise 2017-12-11 08:49:34 UTC / 2017-12-11 09:49:34 Local
Sunset 2017-12-11 14:19:41 UTC / 2017-12-11 15:19:41 Local
Advertisement - Login to hide

Runways

ID Width Length Bearing (true) Bearing (mag) Surface Threshold Offset Overrun Length
07 98 ft / 30 m 4,131 ft / 1,259 m 70.86° 70.18° Asphalt 112 ft / 34 m 0 ft / 0 m
25 98 ft / 30 m 4,131 ft / 1,259 m 250.87° 250.19° Asphalt 66 ft / 20 m 0 ft / 0 m

Approach Navaids

Runway Type Ident Frequency Range Bearing (true) Bearing (mag) Slope Elevation
07 Localiser FL 108.90 MHz 18 nm / 33 km 70.88° 70.20° - 37 ft / 11 m (AMSL)

Map

Weather


0- 5 10 15 20 25 30 35+ Temperature / ° C

Clouds and Precipitation
Forecast for 2017-12-11 12:00 UTC. Updated 3 minutes ago

Ground ~20,000 ft ~40,000 ft Winds

METAR

ENFL 110850Z 10012KT 9999 -SHRASN FEW012 SCT018 BKN030 03/M04 Q0989

TAF

Not found

Frequencies

Tower 119.20 MHz AFIS
Tower 121.85 MHz AFIS
Warning: Do not use this data for real-world aviation or navigation. No guarantee of current accuracy is given.